Time;durP1;ratioP1;P1;durP2;ratioP2;P2;SDS_P1;SDS_P2;PMS_P1;PMS_P2;Temp;Humidity;BMP_temperature;BMP_pressure;BME280_temperature;BME280_humidity;BME280_pressure;Samples;Min_cycle;Max_cycle;Signal;HPM_P1;HPM_P2
2023/01/24 00:00:59;;;;;;;19.38;12.00;;;;;;;;;;5084580;28;20024;-87
2023/01/24 00:03:44;;;;;;;24.15;12.70;;;;;;;;;;5079786;28;20068;-87
2023/01/24 00:06:29;;;;;;;20.27;12.00;;;;;;;;;;5066469;28;20364;-89
2023/01/24 00:09:14;;;;;;;19.42;11.75;;;;;;;;;;5060041;28;20027;-87
2023/01/24 00:11:59;;;;;;;20.08;11.65;;;;;;;;;;5065581;28;20024;-72
2023/01/24 00:14:45;;;;;;;20.27;13.20;;;;;;;;;;5061474;28;20043;-88
2023/01/24 00:17:30;;;;;;;18.88;12.25;;;;;;;;;;5073467;28;20032;-87
2023/01/24 00:20:15;;;;;;;19.90;11.82;;;;;;;;;;5075827;28;20028;-87
2023/01/24 00:23:01;;;;;;;19.90;12.18;;;;;;;;;;5078180;28;20025;-85
2023/01/24 00:25:46;;;;;;;23.52;12.13;;;;;;;;;;5089072;28;20023;-88
2023/01/24 00:28:32;;;;;;;20.35;12.38;;;;;;;;;;5061235;28;20020;-69
2023/01/24 00:31:17;;;;;;;20.13;12.52;;;;;;;;;;5057994;28;20085;-72
2023/01/24 00:34:02;;;;;;;21.05;11.63;;;;;;;;;;5069453;28;20081;-71
2023/01/24 00:36:48;;;;;;;20.35;12.60;;;;;;;;;;5074604;28;20103;-72
2023/01/24 00:39:33;;;;;;;20.85;11.93;;;;;;;;;;5055294;28;20035;-75
2023/01/24 00:42:18;;;;;;;20.83;12.35;;;;;;;;;;5076114;28;20052;-71
2023/01/24 00:45:03;;;;;;;20.50;11.88;;;;;;;;;;5065704;28;20470;-75
2023/01/24 00:47:49;;;;;;;20.40;12.43;;;;;;;;;;5083409;27;20060;-71
2023/01/24 00:50:34;;;;;;;17.98;10.75;;;;;;;;;;5060211;28;20445;-87
2023/01/24 00:53:20;;;;;;;19.83;11.95;;;;;;;;;;5071250;28;20020;-87
2023/01/24 00:56:05;;;;;;;16.90;10.82;;;;;;;;;;5070650;28;20024;-87
2023/01/24 00:58:50;;;;;;;18.15;11.32;;;;;;;;;;5085203;28;20021;-88
2023/01/24 01:01:36;;;;;;;17.80;11.52;;;;;;;;;;5062187;28;20375;-86
2023/01/24 01:04:21;;;;;;;20.90;11.68;;;;;;;;;;5069183;28;20039;-86
2023/01/24 01:07:06;;;;;;;19.35;10.75;;;;;;;;;;5068214;28;20020;-73
2023/01/24 01:09:51;;;;;;;19.70;10.57;;;;;;;;;;5071912;28;20135;-71
2023/01/24 01:12:37;;;;;;;16.50;9.93;;;;;;;;;;5070131;28;20032;-71
2023/01/24 01:15:22;;;;;;;16.75;9.65;;;;;;;;;;5082194;28;20068;-71
2023/01/24 01:18:07;;;;;;;16.98;11.15;;;;;;;;;;5083175;28;20043;-72
2023/01/24 01:20:52;;;;;;;18.60;11.32;;;;;;;;;;5057081;28;20031;-72
2023/01/24 01:23:38;;;;;;;17.95;10.27;;;;;;;;;;5074824;28;20028;-74
2023/01/24 01:26:23;;;;;;;19.38;10.82;;;;;;;;;;5070307;28;20041;-87
2023/01/24 01:29:08;;;;;;;18.80;11.05;;;;;;;;;;5058707;28;20303;-71
2023/01/24 01:31:53;;;;;;;17.80;10.50;;;;;;;;;;5080410;28;20103;-70
2023/01/24 01:34:39;;;;;;;17.15;11.23;;;;;;;;;;5066784;28;20145;-70
2023/01/24 01:37:24;;;;;;;21.10;12.30;;;;;;;;;;5071935;28;20047;-69
2023/01/24 01:40:10;;;;;;;18.98;9.98;;;;;;;;;;5084455;28;20028;-69
2023/01/24 01:42:55;;;;;;;19.73;11.63;;;;;;;;;;5068434;28;20051;-71
2023/01/24 01:45:48;;;;;;;19.92;10.85;;;;;;;;;;5087573;28;20064;-72
2023/01/24 01:48:39;;;;;;;20.55;11.50;;;;;;;;;;5082488;28;20056;-74
2023/01/24 01:51:30;;;;;;;18.55;11.18;;;;;;;;;;5055634;28;20031;-74
2023/01/24 01:54:15;;;;;;;18.73;10.95;;;;;;;;;;5071330;28;20032;-75
2023/01/24 01:57:03;;;;;;;16.75;10.35;;;;;;;;;;5073738;28;20442;-71
2023/01/24 01:59:51;;;;;;;18.75;10.73;;;;;;;;;;5075450;28;20032;-74
2023/01/24 02:02:37;;;;;;;19.98;11.45;;;;;;;;;;5080835;28;20016;-84
2023/01/24 02:05:24;;;;;;;19.27;11.15;;;;;;;;;;5055522;28;20036;-72
2023/01/24 02:08:12;;;;;;;20.02;10.88;;;;;;;;;;5077066;28;20652;-72
2023/01/24 02:17:06;;;;;;;18.80;11.77;;;;;;;;;;5073195;28;20453;-71
2023/01/24 02:20:00;;;;;;;17.95;10.73;;;;;;;;;;5073303;28;20024;-70
2023/01/24 02:22:53;;;;;;;21.17;11.23;;;;;;;;;;5073504;28;20077;-86
2023/01/24 02:25:45;;;;;;;22.35;11.27;;;;;;;;;;5086204;28;20458;-84
2023/01/24 02:28:31;;;;;;;18.15;10.43;;;;;;;;;;5055384;28;20255;-84
2023/01/24 02:31:16;;;;;;;16.55;11.13;;;;;;;;;;5084255;28;20371;-85
2023/01/24 02:34:01;;;;;;;20.70;11.52;;;;;;;;;;5063361;28;20024;-85
2023/01/24 02:36:49;;;;;;;18.15;11.10;;;;;;;;;;5060556;28;20024;-73
2023/01/24 02:39:40;;;;;;;21.98;12.82;;;;;;;;;;5061284;28;20718;-75
2023/01/24 02:42:30;;;;;;;21.92;12.98;;;;;;;;;;5076485;28;20456;-71
2023/01/24 02:45:28;;;;;;;19.00;12.27;;;;;;;;;;5073521;28;20106;-69
2023/01/24 02:48:14;;;;;;;20.48;11.45;;;;;;;;;;5072856;28;20481;-70
2023/01/24 02:54:03;;;;;;;21.00;12.02;;;;;;;;;;5075596;28;20024;-70
2023/01/24 02:59:52;;;;;;;19.48;11.60;;;;;;;;;;5073325;28;20024;-85
2023/01/24 03:02:37;;;;;;;18.85;12.07;;;;;;;;;;5063444;28;20032;-87
2023/01/24 03:05:22;;;;;;;16.80;10.73;;;;;;;;;;5074257;28;20047;-84
2023/01/24 03:08:08;;;;;;;21.42;12.20;;;;;;;;;;5085339;28;20047;-85
2023/01/24 03:10:53;;;;;;;17.30;10.88;;;;;;;;;;5077169;28;20027;-84
2023/01/24 03:35:07;;;;;;;17.65;10.77;;;;;;;;;;5075852;28;20042;-81
2023/01/24 03:40:56;;;;;;;17.95;10.52;;;;;;;;;;5073221;28;20468;-73
2023/01/24 03:43:43;;;;;;;17.98;9.82;;;;;;;;;;5077518;28;20040;-75
2023/01/24 03:46:28;;;;;;;18.90;11.32;;;;;;;;;;5075929;28;20032;-74
2023/01/24 03:49:13;;;;;;;21.92;12.27;;;;;;;;;;5069506;28;20518;-73
2023/01/24 03:55:02;;;;;;;18.73;10.98;;;;;;;;;;5069910;28;20455;-80
2023/01/24 03:57:47;;;;;;;20.48;11.70;;;;;;;;;;5077311;28;20028;-81
2023/01/24 04:00:33;;;;;;;19.85;10.88;;;;;;;;;;5069305;28;20033;-80
2023/01/24 04:03:19;;;;;;;18.67;11.77;;;;;;;;;;5065752;28;20032;-79
2023/01/24 04:06:04;;;;;;;19.95;11.23;;;;;;;;;;5071507;28;20055;-81
2023/01/24 04:08:50;;;;;;;20.65;11.65;;;;;;;;;;5068476;28;20030;-76
2023/01/24 04:11:35;;;;;;;20.02;11.82;;;;;;;;;;5064947;28;20032;-85
2023/01/24 04:14:20;;;;;;;18.90;10.50;;;;;;;;;;5057097;28;20406;-69
2023/01/24 04:17:06;;;;;;;17.98;10.75;;;;;;;;;;5072853;28;20070;-70
2023/01/24 04:19:51;;;;;;;21.20;12.07;;;;;;;;;;5070547;28;20024;-70
2023/01/24 04:22:36;;;;;;;20.42;12.18;;;;;;;;;;5075674;28;20610;-72
2023/01/24 04:25:22;;;;;;;20.85;12.13;;;;;;;;;;5080563;28;20064;-71
2023/01/24 04:28:07;;;;;;;21.52;12.15;;;;;;;;;;5075881;28;20020;-74
2023/01/24 04:30:56;;;;;;;20.65;12.18;;;;;;;;;;5061456;28;20055;-74
2023/01/24 04:33:41;;;;;;;19.07;10.97;;;;;;;;;;5082915;28;20459;-73
2023/01/24 04:36:26;;;;;;;20.30;11.88;;;;;;;;;;5085855;28;20163;-74
2023/01/24 04:39:11;;;;;;;23.55;12.57;;;;;;;;;;5058563;28;20025;-76
2023/01/24 04:41:56;;;;;;;20.38;11.13;;;;;;;;;;5082200;28;20024;-74
2023/01/24 04:44:42;;;;;;;20.67;11.23;;;;;;;;;;5079261;28;20502;-77
2023/01/24 04:47:28;;;;;;;23.13;12.85;;;;;;;;;;5077472;28;20457;-74
2023/01/24 04:50:13;;;;;;;19.52;11.20;;;;;;;;;;5062635;28;20056;-74
2023/01/24 04:52:58;;;;;;;19.70;11.45;;;;;;;;;;5059507;28;20062;-74
2023/01/24 04:55:44;;;;;;;21.63;11.55;;;;;;;;;;5066218;28;20031;-72
2023/01/24 04:58:29;;;;;;;18.85;11.05;;;;;;;;;;5068145;28;20814;-73
2023/01/24 05:01:14;;;;;;;20.73;12.82;;;;;;;;;;5072747;28;20020;-72
2023/01/24 05:03:59;;;;;;;19.67;11.93;;;;;;;;;;5054554;28;20036;-74
2023/01/24 05:06:45;;;;;;;19.70;11.75;;;;;;;;;;5063620;28;20032;-71
2023/01/24 05:09:30;;;;;;;20.73;11.65;;;;;;;;;;5071404;28;20061;-79
2023/01/24 05:12:15;;;;;;;21.13;12.05;;;;;;;;;;5071218;28;20043;-78
2023/01/24 05:15:00;;;;;;;19.42;11.35;;;;;;;;;;5064930;28;20027;-78
2023/01/24 05:17:46;;;;;;;20.08;12.13;;;;;;;;;;5080482;28;20510;-81
2023/01/24 05:20:32;;;;;;;18.83;11.23;;;;;;;;;;5062559;28;20020;-79
2023/01/24 05:23:17;;;;;;;20.48;11.57;;;;;;;;;;5066478;28;20153;-73
2023/01/24 05:26:03;;;;;;;20.17;12.27;;;;;;;;;;5060969;28;20036;-74
2023/01/24 05:28:49;;;;;;;20.15;11.90;;;;;;;;;;5091677;28;20032;-74
2023/01/24 05:31:34;;;;;;;19.42;11.52;;;;;;;;;;5070703;28;20028;-74
2023/01/24 05:34:19;;;;;;;21.77;11.95;;;;;;;;;;5073199;28;20067;-74
2023/01/24 05:37:05;;;;;;;21.80;11.90;;;;;;;;;;5081347;28;20117;-73
2023/01/24 05:39:50;;;;;;;20.85;12.57;;;;;;;;;;5081340;28;20042;-73
2023/01/24 05:42:35;;;;;;;19.67;11.70;;;;;;;;;;5097525;28;20051;-73
2023/01/24 05:45:20;;;;;;;27.33;14.10;;;;;;;;;;5075052;28;20383;-75
2023/01/24 05:48:05;;;;;;;22.20;12.15;;;;;;;;;;5078679;28;20024;-74
2023/01/24 05:50:55;;;;;;;20.23;12.15;;;;;;;;;;5077265;28;20422;-75
2023/01/24 05:53:40;;;;;;;;;;;;;;;;;;5090564;28;20030;-74
2023/01/24 05:56:27;;;;;;;21.08;12.43;;;;;;;;;;5076743;28;19911;-73
2023/01/24 05:59:13;;;;;;;23.75;13.13;;;;;;;;;;5082364;28;20039;-72
2023/01/24 06:01:58;;;;;;;22.13;12.95;;;;;;;;;;5086600;28;20017;-76
2023/01/24 06:04:43;;;;;;;19.50;11.45;;;;;;;;;;5066260;28;20040;-72
2023/01/24 06:07:29;;;;;;;23.10;12.30;;;;;;;;;;5071994;28;20131;-72
2023/01/24 06:10:14;;;;;;;21.52;12.32;;;;;;;;;;5071280;28;20131;-71
2023/01/24 06:12:59;;;;;;;21.88;12.80;;;;;;;;;;5071224;28;20032;-73
2023/01/24 06:15:45;;;;;;;22.88;12.82;;;;;;;;;;5074804;28;20044;-70
2023/01/24 06:18:30;;;;;;;23.90;12.05;;;;;;;;;;5085845;28;20443;-70
2023/01/24 06:21:26;;;;;;;23.85;13.50;;;;;;;;;;5086302;28;20027;-89
2023/01/24 06:24:17;;;;;;;21.58;12.38;;;;;;;;;;5059817;28;20094;-89
2023/01/24 06:27:02;;;;;;;22.60;13.52;;;;;;;;;;5077973;28;20024;-90
2023/01/24 06:29:48;;;;;;;22.73;12.63;;;;;;;;;;5072320;28;20107;-90
2023/01/24 06:32:52;;;;;;;23.20;14.15;;;;;;;;;;5077620;28;20052;-89
2023/01/24 06:35:37;;;;;;;24.55;12.52;;;;;;;;;;5096594;28;20020;-87
2023/01/24 06:38:23;;;;;;;23.48;13.70;;;;;;;;;;5084633;28;20028;-87
2023/01/24 06:41:16;;;;;;;26.88;14.07;;;;;;;;;;5099872;28;20032;-73
2023/01/24 06:44:01;;;;;;;25.13;13.25;;;;;;;;;;5078490;28;20117;-74
2023/01/24 06:46:46;;;;;;;23.48;12.45;;;;;;;;;;5085553;28;20100;-74
2023/01/24 06:49:32;;;;;;;23.70;12.40;;;;;;;;;;5083577;28;20012;-73
2023/01/24 06:52:17;;;;;;;20.20;12.13;;;;;;;;;;5069955;28;20027;-73
2023/01/24 06:55:02;;;;;;;24.67;14.18;;;;;;;;;;5067838;28;20024;-80
2023/01/24 06:57:53;;;;;;;22.00;12.50;;;;;;;;;;5085527;28;20044;-74
2023/01/24 07:00:38;;;;;;;22.60;13.40;;;;;;;;;;5065050;28;20173;-73
2023/01/24 07:03:23;;;;;;;23.23;13.25;;;;;;;;;;5076800;28;20063;-73
2023/01/24 07:06:09;;;;;;;25.10;14.55;;;;;;;;;;5089554;28;20496;-73
2023/01/24 07:08:54;;;;;;;24.63;13.80;;;;;;;;;;5086892;28;20364;-73
2023/01/24 07:11:39;;;;;;;26.42;12.77;;;;;;;;;;5080689;28;20106;-72
2023/01/24 07:14:25;;;;;;;24.15;13.85;;;;;;;;;;5084934;28;20107;-86
2023/01/24 07:17:10;;;;;;;25.92;14.30;;;;;;;;;;5073391;28;20051;-69
2023/01/24 07:19:55;;;;;;;25.90;14.45;;;;;;;;;;5079342;28;20116;-69
2023/01/24 07:22:41;;;;;;;26.70;15.35;;;;;;;;;;5080136;28;20091;-71
2023/01/24 07:25:27;;;;;;;26.45;15.00;;;;;;;;;;5071804;28;20036;-71
2023/01/24 07:28:12;;;;;;;22.98;13.32;;;;;;;;;;5070571;28;20048;-70
2023/01/24 07:30:57;;;;;;;25.52;14.55;;;;;;;;;;5078156;28;20036;-71
2023/01/24 07:33:42;;;;;;;21.05;13.25;;;;;;;;;;5088223;28;20110;-87
2023/01/24 07:36:28;;;;;;;28.17;13.93;;;;;;;;;;5069597;28;20028;-70
2023/01/24 07:39:13;;;;;;;24.48;14.82;;;;;;;;;;5060144;28;20036;-70
2023/01/24 07:41:58;;;;;;;23.38;12.88;;;;;;;;;;5079630;28;20020;-70
2023/01/24 07:44:44;;;;;;;21.75;12.82;;;;;;;;;;5063181;28;20688;-70
2023/01/24 07:47:30;;;;;;;23.85;13.65;;;;;;;;;;5069594;28;20422;-71
2023/01/24 07:50:15;;;;;;;22.15;13.65;;;;;;;;;;5063553;28;20052;-70
2023/01/24 07:53:00;;;;;;;21.65;12.93;;;;;;;;;;5072890;28;20130;-68
2023/01/24 07:55:46;;;;;;;23.88;13.48;;;;;;;;;;5080890;28;20036;-69
2023/01/24 07:58:31;;;;;;;24.45;14.18;;;;;;;;;;5068255;28;20032;-69
2023/01/24 08:01:17;;;;;;;23.90;12.73;;;;;;;;;;5081699;28;20028;-67
2023/01/24 08:04:02;;;;;;;21.48;12.13;;;;;;;;;;5075335;28;20028;-68
2023/01/24 08:09:51;;;;;;;25.60;13.55;;;;;;;;;;5071137;28;20403;-75
2023/01/24 08:12:37;;;;;;;27.27;13.63;;;;;;;;;;5069995;28;20621;-75
2023/01/24 08:15:22;;;;;;;23.52;12.85;;;;;;;;;;5071193;28;20032;-75
2023/01/24 08:18:07;;;;;;;26.05;13.13;;;;;;;;;;5070176;28;20050;-72
2023/01/24 08:20:56;;;;;;;20.83;13.75;;;;;;;;;;5078403;28;20043;-72
2023/01/24 08:23:41;;;;;;;21.83;12.98;;;;;;;;;;5069097;28;20033;-72
2023/01/24 08:26:26;;;;;;;23.67;13.35;;;;;;;;;;5082434;28;20430;-71
2023/01/24 08:29:12;;;;;;;25.67;15.93;;;;;;;;;;5076397;28;20040;-76
2023/01/24 08:31:57;;;;;;;23.27;13.05;;;;;;;;;;5064075;28;20348;-78
2023/01/24 08:34:42;;;;;;;31.38;15.00;;;;;;;;;;5070661;28;20047;-81
2023/01/24 08:37:28;;;;;;;24.73;13.30;;;;;;;;;;5057138;28;20029;-82
2023/01/24 08:40:13;;;;;;;21.67;12.98;;;;;;;;;;5075950;28;20046;-79
2023/01/24 08:42:59;;;;;;;20.63;12.68;;;;;;;;;;5071023;28;20040;-80
2023/01/24 08:45:44;;;;;;;20.70;12.65;;;;;;;;;;5057920;28;20910;-73
2023/01/24 08:48:30;;;;;;;20.15;11.98;;;;;;;;;;5060035;28;20073;-76
2023/01/24 08:51:15;;;;;;;22.95;13.35;;;;;;;;;;5066450;28;20024;-75
2023/01/24 08:54:00;;;;;;;26.00;13.27;;;;;;;;;;5055901;28;20133;-77
2023/01/24 08:56:46;;;;;;;21.20;13.85;;;;;;;;;;5063631;28;20059;-75
2023/01/24 08:59:31;;;;;;;23.98;13.30;;;;;;;;;;5077012;28;20294;-78
2023/01/24 09:02:16;;;;;;;20.10;12.77;;;;;;;;;;5071233;28;20024;-77
2023/01/24 09:05:01;;;;;;;24.90;13.15;;;;;;;;;;5071966;28;20054;-72
2023/01/24 09:07:47;;;;;;;23.40;12.90;;;;;;;;;;5077121;28;20127;-77
2023/01/24 09:10:33;;;;;;;22.73;12.38;;;;;;;;;;5070480;28;20586;-74
2023/01/24 09:13:19;;;;;;;21.90;13.23;;;;;;;;;;5078544;28;20024;-74
2023/01/24 09:16:04;;;;;;;20.88;12.43;;;;;;;;;;5078854;28;20487;-76
2023/01/24 09:18:51;;;;;;;20.08;12.35;;;;;;;;;;5074854;28;20024;-76
2023/01/24 09:21:36;;;;;;;25.83;13.15;;;;;;;;;;5060925;28;20129;-80
2023/01/24 09:24:21;;;;;;;23.13;13.10;;;;;;;;;;5057908;28;20534;-79
2023/01/24 09:27:06;;;;;;;25.48;13.82;;;;;;;;;;5065977;28;20031;-68
2023/01/24 09:29:52;;;;;;;21.17;12.88;;;;;;;;;;5094385;28;20028;-69
2023/01/24 09:32:37;;;;;;;23.98;13.75;;;;;;;;;;5074768;28;20039;-70
2023/01/24 09:35:22;;;;;;;28.05;13.13;;;;;;;;;;5064702;28;20051;-70
2023/01/24 09:38:07;;;;;;;24.55;12.88;;;;;;;;;;5059526;28;20038;-71
2023/01/24 09:40:55;;;;;;;24.33;12.30;;;;;;;;;;5077521;28;20128;-71
2023/01/24 09:43:52;;;;;;;20.77;11.93;;;;;;;;;;5083249;28;20155;-71
2023/01/24 09:46:40;;;;;;;20.42;11.57;;;;;;;;;;5055050;28;20501;-71
2023/01/24 09:49:37;;;;;;;19.55;11.27;;;;;;;;;;5071393;28;20029;-73
2023/01/24 09:52:35;;;;;;;20.13;12.23;;;;;;;;;;5078129;28;20036;-70
2023/01/24 09:55:27;;;;;;;22.58;11.07;;;;;;;;;;5063096;28;20579;-71
2023/01/24 09:58:28;;;;;;;21.95;11.70;;;;;;;;;;5073648;28;20036;-72
2023/01/24 10:01:14;;;;;;;22.60;11.85;;;;;;;;;;5063249;28;20210;-79
2023/01/24 10:03:59;;;;;;;22.48;12.43;;;;;;;;;;5059693;28;20115;-73
2023/01/24 10:07:02;;;;;;;19.70;11.70;;;;;;;;;;5074981;28;20146;-71
2023/01/24 10:09:58;;;;;;;19.83;11.73;;;;;;;;;;5071535;28;20593;-70
2023/01/24 10:13:01;;;;;;;18.05;10.80;;;;;;;;;;5074129;28;20039;-70
2023/01/24 10:16:01;;;;;;;20.50;11.88;;;;;;;;;;5081201;28;20025;-72
2023/01/24 10:18:55;;;;;;;19.90;11.02;;;;;;;;;;5075304;28;20535;-72
2023/01/24 10:21:49;;;;;;;19.88;11.88;;;;;;;;;;5078018;28;20386;-76
2023/01/24 10:24:36;;;;;;;21.27;10.77;;;;;;;;;;5056479;28;20596;-74
2023/01/24 10:27:28;;;;;;;18.80;9.88;;;;;;;;;;5073088;28;20020;-75
2023/01/24 10:30:19;;;;;;;21.00;11.55;;;;;;;;;;5064165;28;20708;-76
2023/01/24 10:33:10;;;;;;;18.55;9.43;;;;;;;;;;5089677;28;20347;-75
2023/01/24 10:35:58;;;;;;;18.95;10.00;;;;;;;;;;5084746;28;20020;-74
2023/01/24 10:38:43;;;;;;;24.67;10.25;;;;;;;;;;5063992;28;20085;-70
2023/01/24 10:41:30;;;;;;;17.88;10.35;;;;;;;;;;5073063;28;20020;-69
2023/01/24 10:44:23;;;;;;;16.90;9.40;;;;;;;;;;5072151;28;20044;-67
2023/01/24 10:47:37;;;;;;;15.77;9.13;;;;;;;;;;5076631;28;20656;-70
2023/01/24 10:50:25;;;;;;;15.23;7.95;;;;;;;;;;5072955;28;20066;-70
2023/01/24 10:53:11;;;;;;;22.58;10.13;;;;;;;;;;5068740;28;20420;-71
2023/01/24 10:56:06;;;;;;;16.92;9.27;;;;;;;;;;5083292;28;20048;-67
2023/01/24 10:58:55;;;;;;;14.93;8.57;;;;;;;;;;5074818;28;20028;-75
2023/01/24 11:01:41;;;;;;;;;;;;;;;;;;5075544;28;20119;-76
2023/01/24 11:04:27;;;;;;;17.00;8.77;;;;;;;;;;5073171;28;20006;-74
2023/01/24 11:07:32;;;;;;;17.92;9.65;;;;;;;;;;5080043;28;20052;-77
2023/01/24 11:10:17;;;;;;;15.80;9.05;;;;;;;;;;5057701;28;20028;-77
2023/01/24 11:13:18;;;;;;;17.88;9.27;;;;;;;;;;5057205;28;20067;-71
2023/01/24 11:16:19;;;;;;;17.65;9.32;;;;;;;;;;5072379;28;20031;-70
2023/01/24 11:19:05;;;;;;;14.82;8.85;;;;;;;;;;5072061;28;20029;-71
2023/01/24 11:21:55;;;;;;;17.77;9.32;;;;;;;;;;5079517;28;20528;-72
2023/01/24 11:24:40;;;;;;;;;;;;;;;;;;5078515;28;20107;-72
2023/01/24 11:27:26;;;;;;;15.43;9.48;;;;;;;;;;5079227;28;19974;-71
2023/01/24 11:30:15;;;;;;;20.35;8.93;;;;;;;;;;5070180;28;20092;-72
2023/01/24 11:33:03;;;;;;;18.98;9.27;;;;;;;;;;5058634;28;20023;-76
2023/01/24 11:35:55;;;;;;;16.17;8.60;;;;;;;;;;5068645;28;20111;-69
2023/01/24 11:38:41;;;;;;;15.27;8.55;;;;;;;;;;5082071;28;20087;-68
2023/01/24 11:41:30;;;;;;;19.13;9.98;;;;;;;;;;5058966;28;20127;-69
2023/01/24 11:44:24;;;;;;;15.95;9.32;;;;;;;;;;5047676;28;20409;-69
2023/01/24 11:47:15;;;;;;;17.95;10.05;;;;;;;;;;5041863;28;20024;-69
2023/01/24 11:50:00;;;;;;;15.63;9.55;;;;;;;;;;5059627;28;20035;-73
2023/01/24 11:52:50;;;;;;;16.55;10.60;;;;;;;;;;5059205;28;20044;-75
2023/01/24 11:56:02;;;;;;;16.98;9.50;;;;;;;;;;5055150;28;20143;-76
2023/01/24 11:59:06;;;;;;;19.85;10.27;;;;;;;;;;5057438;28;20036;-74
2023/01/24 12:02:00;;;;;;;16.10;9.82;;;;;;;;;;5060668;28;20043;-75
2023/01/24 12:04:45;;;;;;;18.67;9.52;;;;;;;;;;5055172;28;20048;-73
2023/01/24 12:07:49;;;;;;;15.75;9.20;;;;;;;;;;5052913;28;20040;-70
2023/01/24 12:10:53;;;;;;;14.10;9.02;;;;;;;;;;5067143;28;20032;-73
2023/01/24 12:13:38;;;;;;;15.93;9.20;;;;;;;;;;5065796;28;20120;-72
2023/01/24 12:16:23;;;;;;;14.70;8.52;;;;;;;;;;5073557;28;20097;-75
2023/01/24 12:19:27;;;;;;;17.05;9.07;;;;;;;;;;5073746;28;20028;-73
2023/01/24 12:22:17;;;;;;;13.48;8.35;;;;;;;;;;5075450;28;20028;-74
2023/01/24 12:25:15;;;;;;;16.13;8.85;;;;;;;;;;5070095;28;20040;-73
2023/01/24 12:28:03;;;;;;;17.27;9.57;;;;;;;;;;5063847;28;20391;-73
2023/01/24 12:30:50;;;;;;;18.63;10.35;;;;;;;;;;5072750;28;20028;-71
2023/01/24 12:33:57;;;;;;;23.83;9.18;;;;;;;;;;5075026;28;20446;-72
2023/01/24 12:36:46;;;;;;;14.77;9.00;;;;;;;;;;5084718;28;20032;-70
2023/01/24 12:39:46;;;;;;;15.27;9.07;;;;;;;;;;5090951;28;20092;-73
2023/01/24 12:42:40;;;;;;;16.88;9.25;;;;;;;;;;5081887;28;20044;-73
2023/01/24 12:45:30;;;;;;;18.80;8.85;;;;;;;;;;5078183;28;20387;-73
2023/01/24 12:48:15;;;;;;;;;;;;;;;;;;5077547;28;20073;-68
2023/01/24 12:51:21;;;;;;;16.50;9.55;;;;;;;;;;5072808;28;19908;-69
2023/01/24 12:54:19;;;;;;;16.17;9.20;;;;;;;;;;5074837;28;20035;-69
2023/01/24 12:57:14;;;;;;;18.20;9.93;;;;;;;;;;5057877;28;20515;-70
2023/01/24 13:00:00;;;;;;;15.45;8.68;;;;;;;;;;5070219;28;20017;-70
2023/01/24 13:03:00;;;;;;;18.20;9.80;;;;;;;;;;5069968;28;20044;-72
2023/01/24 13:06:00;;;;;;;15.88;9.32;;;;;;;;;;5068523;28;20036;-71
2023/01/24 13:09:00;;;;;;;14.52;8.48;;;;;;;;;;5075102;28;20041;-71
2023/01/24 13:11:46;;;;;;;16.83;8.38;;;;;;;;;;5070287;28;20070;-69
2023/01/24 13:14:37;;;;;;;16.23;8.90;;;;;;;;;;5075907;28;20036;-71
2023/01/24 13:17:25;;;;;;;20.75;10.73;;;;;;;;;;5076161;28;20135;-70
2023/01/24 13:20:40;;;;;;;17.17;8.68;;;;;;;;;;5064911;28;20128;-70
2023/01/24 13:23:37;;;;;;;16.58;9.45;;;;;;;;;;5071981;28;20494;-71
2023/01/24 13:26:25;;;;;;;16.58;9.93;;;;;;;;;;5071583;28;20126;-71
2023/01/24 13:29:19;;;;;;;14.00;8.40;;;;;;;;;;5073401;28;20035;-72
2023/01/24 13:32:06;;;;;;;14.90;7.65;;;;;;;;;;5072255;28;20016;-73
2023/01/24 13:34:52;;;;;;;14.80;9.32;;;;;;;;;;5067371;28;20032;-72
2023/01/24 13:37:38;;;;;;;13.70;8.32;;;;;;;;;;5074470;28;20029;-74
2023/01/24 13:40:26;;;;;;;14.57;8.27;;;;;;;;;;5075423;28;20134;-71
2023/01/24 13:43:30;;;;;;;13.13;7.45;;;;;;;;;;5073364;28;20044;-73
2023/01/24 13:46:15;;;;;;;16.83;9.85;;;;;;;;;;5069010;28;20269;-66
2023/01/24 13:49:01;;;;;;;16.38;8.75;;;;;;;;;;5076079;28;20028;-71
2023/01/24 13:51:47;;;;;;;14.23;7.68;;;;;;;;;;5072726;28;20545;-74
2023/01/24 13:54:37;;;;;;;15.65;8.80;;;;;;;;;;5071874;28;20036;-71
2023/01/24 13:57:25;;;;;;;15.27;9.40;;;;;;;;;;5070374;28;20029;-74
2023/01/24 14:00:19;;;;;;;12.50;8.15;;;;;;;;;;5077592;28;20452;-71
2023/01/24 14:03:15;;;;;;;15.05;8.82;;;;;;;;;;5061942;28;20035;-71
2023/01/24 14:06:06;;;;;;;14.48;8.32;;;;;;;;;;5065827;28;20031;-74
2023/01/24 14:09:14;;;;;;;15.20;8.07;;;;;;;;;;5063058;28;20036;-73
2023/01/24 14:12:04;;;;;;;13.90;7.30;;;;;;;;;;5070215;28;20040;-72
2023/01/24 14:15:08;;;;;;;14.85;8.57;;;;;;;;;;5081882;28;20467;-72
2023/01/24 14:17:53;;;;;;;12.98;7.88;;;;;;;;;;5088086;28;20023;-67
2023/01/24 14:20:43;;;;;;;15.60;7.93;;;;;;;;;;5070383;28;20043;-67
2023/01/24 14:23:30;;;;;;;;;;;;;;;;;;5076534;28;20028;-68
2023/01/24 14:26:20;;;;;;;15.30;7.97;;;;;;;;;;5081155;28;20289;-68
2023/01/24 14:29:12;;;;;;;13.00;7.32;;;;;;;;;;5085541;28;20032;-67
2023/01/24 14:32:00;;;;;;;16.17;8.10;;;;;;;;;;5085820;28;20217;-67
2023/01/24 14:34:47;;;;;;;13.23;7.47;;;;;;;;;;5081372;28;20059;-72
2023/01/24 14:37:33;;;;;;;15.82;8.38;;;;;;;;;;5073090;28;20039;-68
2023/01/24 14:40:23;;;;;;;14.80;8.20;;;;;;;;;;5072087;28;20020;-75
2023/01/24 14:43:09;;;;;;;12.65;7.88;;;;;;;;;;5075639;28;20769;-76
2023/01/24 14:45:55;;;;;;;13.30;8.15;;;;;;;;;;5074384;28;20116;-73
2023/01/24 14:48:40;;;;;;;15.63;8.13;;;;;;;;;;5076810;28;20353;-74
2023/01/24 14:51:25;;;;;;;18.40;8.15;;;;;;;;;;5080427;28;20445;-76
2023/01/24 14:54:19;;;;;;;18.02;8.77;;;;;;;;;;5074002;28;20020;-77
2023/01/24 14:57:18;;;;;;;14.52;8.65;;;;;;;;;;5057897;28;20024;-68
2023/01/24 15:00:03;;;;;;;15.20;8.00;;;;;;;;;;5062780;28;20527;-68
2023/01/24 15:02:53;;;;;;;16.63;8.27;;;;;;;;;;5069948;28;20028;-69
2023/01/24 15:05:38;;;;;;;;;;;;;;;;;;5076531;28;20046;-70
2023/01/24 15:08:25;;;;;;;13.93;7.95;;;;;;;;;;5068338;28;19908;-71
2023/01/24 15:11:18;;;;;;;13.77;8.35;;;;;;;;;;5070496;28;20142;-69
2023/01/24 15:14:05;;;;;;;13.45;7.88;;;;;;;;;;5073759;28;20032;-66
2023/01/24 15:16:54;;;;;;;13.98;7.82;;;;;;;;;;5076278;28;20130;-76
2023/01/24 15:19:39;;;;;;;14.63;7.63;;;;;;;;;;5072508;28;20024;-79
2023/01/24 15:22:26;;;;;;;12.00;7.82;;;;;;;;;;5087506;28;20254;-76
2023/01/24 15:25:22;;;;;;;14.73;9.20;;;;;;;;;;5058224;28;20067;-74
2023/01/24 15:28:29;;;;;;;15.85;8.52;;;;;;;;;;5079615;28;20628;-79
2023/01/24 15:31:18;;;;;;;15.43;9.15;;;;;;;;;;5074055;28;20062;-71
2023/01/24 15:34:16;;;;;;;14.38;7.85;;;;;;;;;;5070039;28;20055;-71
2023/01/24 15:37:01;;;;;;;15.52;8.15;;;;;;;;;;5068754;28;20678;-68
2023/01/24 15:39:46;;;;;;;14.73;8.45;;;;;;;;;;5074695;28;20111;-67
2023/01/24 15:45:37;;;;;;;14.25;8.57;;;;;;;;;;5081660;28;20446;-68
2023/01/24 15:48:26;;;;;;;13.57;7.35;;;;;;;;;;5077421;28;20024;-71
2023/01/24 15:51:27;;;;;;;14.77;8.35;;;;;;;;;;5072273;28;20523;-78
2023/01/24 15:54:13;;;;;;;14.88;8.48;;;;;;;;;;5080564;28;20048;-83
2023/01/24 15:57:00;;;;;;;15.20;9.57;;;;;;;;;;5052196;28;20059;-79
2023/01/24 15:59:47;;;;;;;16.75;9.15;;;;;;;;;;5068948;28;20095;-78
2023/01/24 16:02:32;;;;;;;17.02;10.35;;;;;;;;;;5081100;28;20036;-76
2023/01/24 16:05:18;;;;;;;16.45;9.30;;;;;;;;;;5076503;28;20036;-79
2023/01/24 16:08:04;;;;;;;16.23;9.18;;;;;;;;;;5062889;28;20035;-72
2023/01/24 16:10:49;;;;;;;18.98;10.63;;;;;;;;;;5070152;28;20035;-69
2023/01/24 16:13:39;;;;;;;15.57;9.88;;;;;;;;;;5071345;28;20478;-70
2023/01/24 16:16:24;;;;;;;16.60;10.02;;;;;;;;;;5074933;28;20549;-68
2023/01/24 16:19:17;;;;;;;14.27;9.13;;;;;;;;;;5074162;28;20576;-70
2023/01/24 16:22:02;;;;;;;15.57;9.55;;;;;;;;;;5062950;28;20128;-68
2023/01/24 16:24:47;;;;;;;20.30;10.40;;;;;;;;;;5078650;28;20115;-68
2023/01/24 16:27:33;;;;;;;20.67;10.00;;;;;;;;;;5081777;28;20032;-69
2023/01/24 16:30:20;;;;;;;18.23;10.68;;;;;;;;;;5071837;28;20143;-67
2023/01/24 16:33:05;;;;;;;17.33;10.40;;;;;;;;;;5073490;28;20217;-69
2023/01/24 16:35:50;;;;;;;20.70;10.98;;;;;;;;;;5077551;28;20054;-67
2023/01/24 16:38:35;;;;;;;19.83;10.27;;;;;;;;;;5069590;28;20035;-68
2023/01/24 16:41:20;;;;;;;19.13;10.30;;;;;;;;;;5076588;28;20020;-69
2023/01/24 16:44:06;;;;;;;17.60;10.52;;;;;;;;;;5071704;28;20048;-69
2023/01/24 16:46:52;;;;;;;22.70;11.00;;;;;;;;;;5079849;28;20032;-71
2023/01/24 16:49:37;;;;;;;19.92;11.18;;;;;;;;;;5072508;28;20379;-73
2023/01/24 16:52:24;;;;;;;15.57;9.73;;;;;;;;;;5068817;28;20032;-73
2023/01/24 16:55:09;;;;;;;19.40;11.93;;;;;;;;;;5075284;28;21817;-72
2023/01/24 16:57:54;;;;;;;18.90;10.85;;;;;;;;;;5077440;28;20334;-74
2023/01/24 17:00:39;;;;;;;19.83;10.68;;;;;;;;;;5070775;28;20116;-73
2023/01/24 17:03:25;;;;;;;20.15;10.93;;;;;;;;;;5082363;28;20036;-73
2023/01/24 17:06:12;;;;;;;17.35;10.85;;;;;;;;;;5063964;28;20043;-69
2023/01/24 17:08:57;;;;;;;21.50;10.93;;;;;;;;;;5069941;28;20530;-68
2023/01/24 17:11:43;;;;;;;20.88;11.65;;;;;;;;;;5071066;28;20074;-69